Time,TemperatureF,DewpointF,PressureIn,WindDirection,WindDirectionDegrees,WindSpeedMPH,WindSpeedGustMPH,Humidity,HourlyPrecipIn,Conditions,Clouds,dailyrainin,SolarRadiationWatts/m^2,SoftwareType,DateUTC
2013-08-27 00:00:00,74.2,70.4,29.85,WSW,248,6.0,10.0,88,0.04,RA,,0.00,0.0,WeatherDisplay:10.37,2013-08-26 22:00:00,
2013-08-27 00:05:00,71.8,68.0,29.85,West,265,3.0,12.0,88,0.04,RA,,0.04,0.0,WeatherDisplay:10.37,2013-08-26 22:05:00,
2013-08-27 00:10:00,71.4,68.0,29.84,NW,315,6.0,12.0,89,0.05,RA,,0.09,0.0,WeatherDisplay:10.37,2013-08-26 22:10:00,
2013-08-27 00:15:00,71.0,67.9,29.85,NNW,339,6.0,9.0,90,0.05,RA,,0.13,0.0,WeatherDisplay:10.37,2013-08-26 22:15:00,
2013-08-27 00:20:00,70.6,67.5,29.84,NNW,342,3.0,9.0,90,0.03,RA,,0.17,0.0,WeatherDisplay:10.37,2013-08-26 22:20:00,
2013-08-27 00:25:00,70.2,67.5,29.84,NNW,346,7.0,12.0,91,0.04,RA,,0.20,0.0,WeatherDisplay:10.37,2013-08-26 22:25:00,
2013-08-27 00:30:00,69.6,66.9,29.84,NNW,344,3.0,10.0,91,0.04,RA,,0.24,0.0,WeatherDisplay:10.37,2013-08-26 22:30:00,
2013-08-27 00:35:00,69.6,66.8,29.83,North,7,6.0,7.0,91,0.03,RA,,0.28,0.0,WeatherDisplay:10.37,2013-08-26 22:35:00,
2013-08-27 00:40:00,69.5,66.8,29.83,ENE,59,2.0,8.0,91,0.03,RA,,0.31,0.0,WeatherDisplay:10.37,2013-08-26 22:40:00,
2013-08-27 00:45:00,69.5,66.8,29.83,ENE,70,0.0,4.0,91,0.03,RA,,0.34,0.0,WeatherDisplay:10.37,2013-08-26 22:45:00,
2013-08-27 00:50:00,69.5,66.8,29.83,ENE,67,0.0,0.0,91,0.02,RA,,0.36,0.0,WeatherDisplay:10.37,2013-08-26 22:50:00,
2013-08-27 00:55:00,69.6,67.2,29.84,NE,51,3.0,5.0,92,0.02,RA,,0.39,0.0,WeatherDisplay:10.37,2013-08-26 22:55:00,
2013-08-27 01:00:00,69.5,67.0,29.84,NNE,29,0.0,3.0,92,0.02,RA,,0.41,0.0,WeatherDisplay:10.37,2013-08-26 23:00:00,
2013-08-27 01:05:00,69.6,67.2,29.84,East,88,6.0,8.0,92,0.02,RA,,0.43,0.0,WeatherDisplay:10.37,2013-08-26 23:05:00,
2013-08-27 01:10:00,69.6,67.2,29.84,ESE,105,0.0,7.0,92,0.02,RA,,0.44,0.0,WeatherDisplay:10.37,2013-08-26 23:10:00,
2013-08-27 01:15:00,69.6,67.2,29.84,ESE,105,0.0,5.0,92,0.02,RA,,0.46,0.0,WeatherDisplay:10.37,2013-08-26 23:15:00,
2013-08-27 01:20:00,69.6,67.2,29.84,ESE,107,6.0,9.0,92,0.00,RA,,0.46,0.0,WeatherDisplay:10.37,2013-08-26 23:20:00,
2013-08-27 01:25:00,69.6,67.2,29.85,ESE,114,3.0,10.0,92,0.00,SCT,,0.46,0.0,WeatherDisplay:10.37,2013-08-26 23:25:00,
2013-08-27 01:30:00,69.8,67.3,29.85,ESE,118,3.0,10.0,92,0.00,SCT,,0.46,0.0,WeatherDisplay:10.37,2013-08-26 23:30:00,
2013-08-27 01:35:00,70.0,67.6,29.85,ESE,122,1.0,6.0,92,0.00,FEW,,0.46,0.0,WeatherDisplay:10.37,2013-08-26 23:35:00,
2013-08-27 01:40:00,70.0,67.6,29.85,SE,135,3.0,12.0,92,0.00,FEW,,0.46,0.0,WeatherDisplay:10.37,2013-08-26 23:40:00,
2013-08-27 01:45:00,69.5,67.1,29.85,SE,136,3.0,9.0,92,0.00,FEW,,0.46,0.0,WeatherDisplay:10.37,2013-08-26 23:45:00,
2013-08-27 01:50:00,69.4,66.7,29.85,SE,125,5.0,13.0,91,0.00,FEW,,0.46,0.0,WeatherDisplay:10.37,2013-08-26 23:50:00,
2013-08-27 01:55:00,69.5,66.8,29.84,SE,127,5.0,12.0,91,0.00,FEW,,0.46,0.0,WeatherDisplay:10.37,2013-08-26 23:55:00,
2013-08-27 02:00:00,69.5,66.4,29.84,SE,138,2.0,9.0,90,0.00,FEW,,0.46,0.0,WeatherDisplay:10.37,2013-08-27 00:00:00,
2013-08-27 02:05:00,69.5,66.1,29.83,SE,136,6.0,10.0,89,0.00,SCT,,0.46,0.0,WeatherDisplay:10.37,2013-08-27 00:05:00,
2013-08-27 02:10:00,69.6,66.2,29.83,SE,125,3.0,10.0,89,0.00,SCT,,0.46,0.0,WeatherDisplay:10.37,2013-08-27 00:10:00,
2013-08-27 02:15:00,69.5,66.1,29.83,SE,124,3.0,9.0,89,0.00,SCT,,0.46,0.0,WeatherDisplay:10.37,2013-08-27 00:15:00,
2013-08-27 02:20:00,69.5,66.1,29.83,SE,129,1.0,6.0,89,0.00,SCT,,0.46,0.0,WeatherDisplay:10.37,2013-08-27 00:20:00,
2013-08-27 02:25:00,69.4,66.1,29.83,SE,131,1.0,7.0,89,0.00,SCT,,0.46,0.0,WeatherDisplay:10.37,2013-08-27 00:25:00,
2013-08-27 02:30:00,69.5,66.1,29.83,SE,131,0.0,3.0,89,0.00,SCT,,0.46,0.0,WeatherDisplay:10.37,2013-08-27 00:30:00,
2013-08-27 02:35:00,69.5,66.1,29.83,SE,130,0.0,1.0,89,0.00,SCT,,0.46,0.0,WeatherDisplay:10.37,2013-08-27 00:35:00,
2013-08-27 02:40:00,69.5,66.1,29.83,SE,130,0.0,0.0,89,0.00,SCT,,0.46,0.0,WeatherDisplay:10.37,2013-08-27 00:40:00,
2013-08-27 02:45:00,69.6,66.2,29.83,SE,130,0.0,0.0,89,0.00,SCT,,0.46,0.0,WeatherDisplay:10.37,2013-08-27 00:45:00,
2013-08-27 02:50:00,69.5,66.1,29.83,SE,130,0.0,0.0,89,0.00,SCT,,0.46,0.0,WeatherDisplay:10.37,2013-08-27 00:50:00,
2013-08-27 02:55:00,69.7,66.3,29.83,SE,130,0.0,0.0,89,0.00,SCT,,0.46,0.0,WeatherDisplay:10.37,2013-08-27 00:55:00,
2013-08-27 03:00:00,69.9,66.2,29.83,SE,130,0.0,1.0,88,0.00,SCT,,0.46,0.0,WeatherDisplay:10.37,2013-08-27 01:00:00,
2013-08-27 03:05:00,70.0,66.3,29.83,SE,130,0.0,1.0,88,0.00,SCT,,0.46,0.0,WeatherDisplay:10.37,2013-08-27 01:05:00,
2013-08-27 03:10:00,70.2,66.5,29.82,SE,130,0.0,0.0,88,0.00,SCT,,0.46,0.0,WeatherDisplay:10.37,2013-08-27 01:10:00,
2013-08-27 03:15:00,70.3,66.6,29.83,SE,130,0.0,0.0,88,0.01,RA,,0.47,0.0,WeatherDisplay:10.37,2013-08-27 01:15:00,
2013-08-27 03:20:00,70.2,66.5,29.83,SE,130,0.0,0.0,88,0.01,RA,,0.47,0.0,WeatherDisplay:10.37,2013-08-27 01:20:00,
2013-08-27 03:25:00,70.1,66.7,29.83,SE,130,0.0,2.0,89,0.02,RA,,0.49,0.0,WeatherDisplay:10.37,2013-08-27 01:25:00,
2013-08-27 03:30:00,69.8,66.4,29.82,SE,127,1.0,6.0,89,0.02,RA,,0.50,0.0,WeatherDisplay:10.37,2013-08-27 01:30:00,
2013-08-27 03:35:00,69.5,66.4,29.83,SE,124,1.0,6.0,90,0.02,RA,,0.53,0.0,WeatherDisplay:10.37,2013-08-27 01:35:00,
2013-08-27 03:40:00,69.5,66.4,29.83,ESE,123,0.0,1.0,90,0.02,RA,,0.54,0.0,WeatherDisplay:10.37,2013-08-27 01:40:00,
2013-08-27 03:45:00,69.5,66.8,29.83,ESE,123,0.0,1.0,91,0.02,RA,,0.57,0.0,WeatherDisplay:10.37,2013-08-27 01:45:00,
2013-08-27 03:50:00,69.5,66.8,29.83,ESE,123,0.0,0.0,91,0.02,RA,,0.58,0.0,WeatherDisplay:10.37,2013-08-27 01:50:00,
2013-08-27 03:55:00,69.6,66.9,29.83,ESE,123,0.0,0.0,91,0.02,RA,,0.60,0.0,WeatherDisplay:10.37,2013-08-27 01:55:00,
2013-08-27 04:05:00,70.0,66.6,29.82,SE,132,7.0,18.0,89,0.01,RA,,0.62,0.0,WeatherDisplay:10.37,2013-08-27 02:05:00,
2013-08-27 04:10:00,70.3,66.6,29.82,SE,125,8.0,18.0,88,0.00,RA,,0.62,0.0,WeatherDisplay:10.37,2013-08-27 02:10:00,
2013-08-27 04:15:00,70.3,66.3,29.82,SE,132,6.0,16.0,87,0.00,SCT,,0.62,0.0,WeatherDisplay:10.37,2013-08-27 02:15:00,
2013-08-27 04:20:00,70.4,66.7,29.82,SE,134,3.0,14.0,88,0.00,SCT,,0.62,0.0,WeatherDisplay:10.37,2013-08-27 02:20:00,
2013-08-27 04:25:00,70.4,66.6,29.82,SE,135,5.0,14.0,88,0.00,SCT,,0.62,0.0,WeatherDisplay:10.37,2013-08-27 02:25:00,
2013-08-27 04:30:00,70.3,66.6,29.82,SE,130,6.0,13.0,88,0.00,SCT,,0.62,0.0,WeatherDisplay:10.37,2013-08-27 02:30:00,
2013-08-27 04:35:00,70.4,66.7,29.82,SE,125,5.0,13.0,88,0.00,SCT,,0.62,0.0,WeatherDisplay:10.37,2013-08-27 02:35:00,
2013-08-27 04:40:00,70.4,66.3,29.82,ESE,116,6.0,12.0,87,0.00,SCT,,0.62,0.0,WeatherDisplay:10.37,2013-08-27 02:40:00,
2013-08-27 04:45:00,70.3,66.2,29.82,ESE,113,0.0,7.0,87,0.00,SCT,,0.62,0.0,WeatherDisplay:10.37,2013-08-27 02:45:00,
2013-08-27 04:50:00,70.3,66.6,29.82,ESE,123,0.0,4.0,88,0.00,SCT,,0.62,0.0,WeatherDisplay:10.37,2013-08-27 02:50:00,
2013-08-27 04:55:00,70.4,66.3,29.82,ESE,123,1.0,5.0,87,0.00,SCT,,0.62,0.0,WeatherDisplay:10.37,2013-08-27 02:55:00,
2013-08-27 05:00:00,70.4,66.7,29.82,SSE,150,1.0,5.0,88,0.00,SCT,,0.62,0.0,WeatherDisplay:10.37,2013-08-27 03:00:00,
2013-08-27 05:05:00,70.4,66.7,29.83,SSE,162,0.0,4.0,88,0.00,SCT,,0.62,0.0,WeatherDisplay:10.37,2013-08-27 03:05:00,
2013-08-27 05:10:00,70.4,66.4,29.82,SSE,164,1.0,5.0,87,0.00,SCT,,0.62,0.0,WeatherDisplay:10.37,2013-08-27 03:10:00,
2013-08-27 05:15:00,70.5,66.4,29.82,SSE,167,0.0,4.0,87,0.00,SCT,,0.62,0.0,WeatherDisplay:10.37,2013-08-27 03:15:00,
2013-08-27 05:20:00,70.5,66.5,29.83,SSE,167,0.0,1.0,87,0.00,SCT,,0.62,0.0,WeatherDisplay:10.37,2013-08-27 03:20:00,
2013-08-27 05:25:00,70.6,66.5,29.82,SSE,167,0.0,0.0,87,0.00,SCT,,0.62,0.0,WeatherDisplay:10.37,2013-08-27 03:25:00,
2013-08-27 05:30:00,70.7,66.6,29.82,SSE,167,0.0,1.0,87,0.00,SCT,,0.62,0.0,WeatherDisplay:10.37,2013-08-27 03:30:00,
2013-08-27 05:35:00,70.6,66.5,29.83,SSE,167,0.0,0.0,87,0.00,SCT,,0.62,0.0,WeatherDisplay:10.37,2013-08-27 03:35:00,
2013-08-27 05:40:00,70.5,66.4,29.83,SSE,167,0.0,0.0,87,0.00,SCT,,0.62,0.0,WeatherDisplay:10.37,2013-08-27 03:40:00,
2013-08-27 05:45:00,70.4,66.4,29.82,SSE,167,0.0,0.0,87,0.00,SCT,,0.62,0.0,WeatherDisplay:10.37,2013-08-27 03:45:00,
2013-08-27 05:50:00,70.3,66.3,29.82,SSE,167,0.0,0.0,87,0.00,SCT,,0.62,0.0,WeatherDisplay:10.37,2013-08-27 03:50:00,
2013-08-27 06:00:00,70.4,66.3,29.82,SSE,167,0.0,0.0,87,0.00,SCT,,0.62,0.0,WeatherDisplay:10.37,2013-08-27 04:00:00,
2013-08-27 06:05:00,70.4,66.7,29.82,SSE,163,0.0,0.0,88,0.00,RA,,0.62,0.0,WeatherDisplay:10.37,2013-08-27 04:05:00,
2013-08-27 06:10:00,70.5,66.8,29.81,SSE,164,0.0,1.0,88,0.00,BKN,,0.62,0.0,WeatherDisplay:10.37,2013-08-27 04:10:00,
2013-08-27 06:15:00,70.5,66.4,29.81,SSE,167,0.0,0.0,87,0.00,BKN,,0.62,0.0,WeatherDisplay:10.37,2013-08-27 04:15:00,
2013-08-27 06:20:00,70.4,66.4,29.81,SSE,167,0.0,0.0,87,0.00,BKN,,0.62,0.0,WeatherDisplay:10.37,2013-08-27 04:20:00,
2013-08-27 06:25:00,70.5,66.8,29.81,SSE,167,0.0,1.0,88,0.00,BKN,,0.62,0.0,WeatherDisplay:10.37,2013-08-27 04:25:00,
2013-08-27 06:30:00,70.6,66.9,29.81,SSE,167,0.0,1.0,88,0.00,BKN,,0.62,0.0,WeatherDisplay:10.37,2013-08-27 04:30:00,
2013-08-27 06:35:00,70.5,66.8,29.81,SSE,167,1.0,4.0,88,0.00,BKN,,0.62,0.0,WeatherDisplay:10.37,2013-08-27 04:35:00,
2013-08-27 06:40:00,70.3,66.6,29.81,SSE,167,0.0,2.0,88,0.00,BKN,,0.62,7.0,WeatherDisplay:10.37,2013-08-27 04:40:00,
2013-08-27 06:45:00,70.3,66.6,29.81,SSE,167,0.0,0.0,88,0.00,BKN,,0.62,11.0,WeatherDisplay:10.37,2013-08-27 04:45:00,
2013-08-27 06:50:00,70.3,66.9,29.82,South,169,1.0,5.0,89,0.00,BKN,,0.62,14.0,WeatherDisplay:10.37,2013-08-27 04:50:00,
2013-08-27 06:55:00,70.3,66.9,29.82,SSW,195,2.0,5.0,89,0.00,BKN,,0.62,16.0,WeatherDisplay:10.37,2013-08-27 04:55:00,
2013-08-27 07:00:00,70.3,66.9,29.82,SW,220,0.0,3.0,89,0.00,BKN,,0.62,18.0,WeatherDisplay:10.37,2013-08-27 05:00:00,
2013-08-27 07:05:00,70.4,67.0,29.82,SW,223,0.0,1.0,89,0.00,BKN,,0.62,21.0,WeatherDisplay:10.37,2013-08-27 05:05:00,
2013-08-27 07:10:00,70.4,67.0,29.83,SW,223,0.0,1.0,89,0.00,BKN,,0.62,30.0,WeatherDisplay:10.37,2013-08-27 05:10:00,
2013-08-27 07:15:00,70.5,67.1,29.83,SW,223,0.0,0.0,89,0.00,BKN,,0.62,28.0,WeatherDisplay:10.37,2013-08-27 05:15:00,
2013-08-27 07:20:00,70.4,67.0,29.83,SW,223,0.0,1.0,89,0.00,BKN,,0.62,26.0,WeatherDisplay:10.37,2013-08-27 05:20:00,
2013-08-27 07:25:00,70.5,67.1,29.83,SW,223,0.0,1.0,89,0.00,BKN,,0.62,37.0,WeatherDisplay:10.37,2013-08-27 05:25:00,
2013-08-27 07:30:00,70.5,67.4,29.84,SW,223,0.0,1.0,90,0.00,BKN,,0.62,49.0,WeatherDisplay:10.37,2013-08-27 05:30:00,
2013-08-27 07:35:00,70.5,67.4,29.84,SW,223,0.0,0.0,90,0.00,BKN,,0.62,65.0,WeatherDisplay:10.37,2013-08-27 05:35:00,
2013-08-27 07:40:00,70.6,67.5,29.84,SW,223,0.0,0.0,90,0.00,BKN,,0.62,84.0,WeatherDisplay:10.37,2013-08-27 05:40:00,
2013-08-27 07:45:00,70.7,67.6,29.84,SW,223,0.0,0.0,90,0.00,BKN,,0.62,93.0,WeatherDisplay:10.37,2013-08-27 05:45:00,
2013-08-27 07:50:00,70.8,67.7,29.83,SW,223,0.0,0.0,90,0.00,BKN,,0.62,91.0,WeatherDisplay:10.37,2013-08-27 05:50:00,
2013-08-27 07:55:00,70.9,67.8,29.83,SW,223,0.0,0.0,90,0.00,BKN,,0.62,95.0,WeatherDisplay:10.37,2013-08-27 05:55:00,
2013-08-27 08:00:00,71.2,68.1,29.83,SW,223,0.0,0.0,90,0.00,BKN,,0.62,111.0,WeatherDisplay:10.37,2013-08-27 06:00:00,
2013-08-27 08:05:00,71.2,68.1,29.83,SW,223,0.0,0.0,90,0.00,SCT,,0.62,91.0,WeatherDisplay:10.37,2013-08-27 06:05:00,
2013-08-27 08:10:00,71.3,68.2,29.83,SW,223,0.0,1.0,90,0.00,SCT,,0.62,88.0,WeatherDisplay:10.37,2013-08-27 06:10:00,
2013-08-27 08:15:00,71.2,68.1,29.83,SW,223,0.0,0.0,90,0.00,SCT,,0.62,179.0,WeatherDisplay:10.37,2013-08-27 06:15:00,
2013-08-27 08:20:00,71.5,68.4,29.83,SW,223,0.0,0.0,90,0.00,SCT,,0.62,200.0,WeatherDisplay:10.37,2013-08-27 06:20:00,
2013-08-27 08:25:00,71.8,68.7,29.83,SW,223,0.0,0.0,90,0.00,SCT,,0.62,190.0,WeatherDisplay:10.37,2013-08-27 06:25:00,
2013-08-27 08:30:00,72.3,69.2,29.83,SW,223,0.0,0.0,90,0.00,SCT,,0.62,223.0,WeatherDisplay:10.37,2013-08-27 06:30:00,
2013-08-27 08:35:00,72.8,69.7,29.83,SW,223,0.0,0.0,90,0.00,SCT,,0.62,236.0,WeatherDisplay:10.37,2013-08-27 06:35:00,
2013-08-27 08:40:00,72.9,69.5,29.83,SW,223,0.0,0.0,89,0.00,SCT,,0.62,269.0,WeatherDisplay:10.37,2013-08-27 06:40:00,
2013-08-27 08:45:00,73.3,69.5,29.83,SW,223,0.0,0.0,88,0.00,SCT,,0.62,279.0,WeatherDisplay:10.37,2013-08-27 06:45:00,
2013-08-27 08:50:00,73.4,69.3,29.83,SW,223,0.0,0.0,87,0.00,SCT,,0.62,301.0,WeatherDisplay:10.37,2013-08-27 06:50:00,
2013-08-27 08:55:00,74.1,70.0,29.83,SW,223,0.0,0.0,87,0.00,SCT,,0.62,323.0,WeatherDisplay:10.37,2013-08-27 06:55:00,
2013-08-27 09:00:00,75.1,70.2,29.83,SW,223,0.0,0.0,85,0.00,SCT,,0.62,339.0,WeatherDisplay:10.37,2013-08-27 07:00:00,
2013-08-27 09:05:00,74.6,69.1,29.83,SW,223,0.0,1.0,83,0.00,SCT,,0.62,355.0,WeatherDisplay:10.37,2013-08-27 07:05:00,
2013-08-27 09:10:00,74.8,69.7,29.83,SW,223,0.0,0.0,84,0.00,SCT,,0.62,373.0,WeatherDisplay:10.37,2013-08-27 07:10:00,
2013-08-27 09:15:00,75.7,70.2,29.83,SW,223,0.0,0.0,83,0.00,SCT,,0.62,381.0,WeatherDisplay:10.37,2013-08-27 07:15:00,
2013-08-27 09:20:00,75.9,68.9,29.83,SW,223,0.0,0.0,79,0.00,SCT,,0.62,401.0,WeatherDisplay:10.37,2013-08-27 07:20:00,
2013-08-27 09:30:00,77.0,68.5,29.83,SW,223,0.0,1.0,75,0.00,SCT,,0.62,425.0,WeatherDisplay:10.37,2013-08-27 07:30:00,
2013-08-27 09:35:00,77.7,68.8,29.83,SW,223,0.0,1.0,74,0.00,SCT,,0.62,438.0,WeatherDisplay:10.37,2013-08-27 07:35:00,
2013-08-27 09:40:00,77.4,68.1,29.83,SW,223,0.0,1.0,73,0.00,SCT,,0.62,455.0,WeatherDisplay:10.37,2013-08-27 07:40:00,
2013-08-27 09:45:00,77.3,68.0,29.83,SSW,213,0.0,6.0,73,0.01,RA,,0.63,471.0,WeatherDisplay:10.37,2013-08-27 07:45:00,
2013-08-27 09:50:00,77.4,68.4,29.83,South,190,2.0,6.0,74,0.00,RA,,0.63,483.0,WeatherDisplay:10.37,2013-08-27 07:50:00,
2013-08-27 09:55:00,77.2,68.2,29.83,SSE,166,0.0,6.0,74,0.00,SCT,,0.63,492.0,WeatherDisplay:10.37,2013-08-27 07:55:00,
2013-08-27 10:00:00,77.1,67.4,29.83,South,182,7.0,9.0,72,0.00,SCT,,0.63,513.0,WeatherDisplay:10.37,2013-08-27 08:00:00,
2013-08-27 10:05:00,76.9,67.6,29.84,South,178,6.0,13.0,73,0.00,SCT,,0.63,520.0,WeatherDisplay:10.37,2013-08-27 08:05:00,
2013-08-27 10:10:00,76.6,67.3,29.84,South,176,3.0,12.0,73,0.00,SCT,,0.63,533.0,WeatherDisplay:10.37,2013-08-27 08:10:00,
2013-08-27 10:15:00,76.7,67.0,29.84,South,174,1.0,9.0,72,0.00,SCT,,0.63,548.0,WeatherDisplay:10.37,2013-08-27 08:15:00,
2013-08-27 10:20:00,77.5,67.3,29.83,South,172,2.0,9.0,71,0.00,SCT,,0.63,559.0,WeatherDisplay:10.37,2013-08-27 08:20:00,
2013-08-27 10:25:00,77.1,67.4,29.83,South,170,2.0,12.0,72,0.00,SCT,,0.63,573.0,WeatherDisplay:10.37,2013-08-27 08:25:00,
2013-08-27 10:30:00,78.0,67.8,29.83,SSE,160,3.0,8.0,71,0.00,SCT,,0.63,585.0,WeatherDisplay:10.37,2013-08-27 08:30:00,
2013-08-27 10:35:00,78.2,68.4,29.83,SSE,151,2.0,9.0,72,0.00,FEW,,0.63,599.0,WeatherDisplay:10.37,2013-08-27 08:35:00,
2013-08-27 10:40:00,77.9,68.6,29.83,South,176,0.0,8.0,73,0.00,FEW,,0.63,617.0,WeatherDisplay:10.37,2013-08-27 08:40:00,
2013-08-27 10:45:00,78.3,67.7,29.84,South,187,5.0,10.0,70,0.00,FEW,,0.63,657.0,WeatherDisplay:10.37,2013-08-27 08:45:00,
2013-08-27 10:50:00,78.1,68.3,29.84,South,171,2.0,10.0,72,0.00,FEW,,0.63,661.0,WeatherDisplay:10.37,2013-08-27 08:50:00,
2013-08-27 10:55:00,78.5,67.9,29.84,SSE,152,5.0,12.0,70,0.00,FEW,,0.63,731.0,WeatherDisplay:10.37,2013-08-27 08:55:00,
2013-08-27 11:00:00,78.8,68.2,29.83,SSE,147,2.0,12.0,70,0.00,FEW,,0.63,731.0,WeatherDisplay:10.37,2013-08-27 09:00:00,
2013-08-27 11:05:00,78.8,67.7,29.83,SSE,158,6.0,12.0,69,0.00,FEW,,0.63,765.0,WeatherDisplay:10.37,2013-08-27 09:05:00,
2013-08-27 11:10:00,79.0,68.0,29.83,SSE,149,3.0,9.0,69,0.00,FEW,,0.63,895.0,WeatherDisplay:10.37,2013-08-27 09:10:00,
2013-08-27 11:15:00,79.3,68.2,29.83,SSE,152,6.0,12.0,69,0.00,FEW,,0.63,424.0,WeatherDisplay:10.37,2013-08-27 09:15:00,
2013-08-27 11:20:00,78.3,67.3,29.83,South,173,6.0,12.0,69,0.00,FEW,,0.63,410.0,WeatherDisplay:10.37,2013-08-27 09:20:00,
2013-08-27 11:25:00,78.7,68.5,29.83,South,173,2.0,7.0,71,0.00,FEW,,0.63,262.0,WeatherDisplay:10.37,2013-08-27 09:25:00,
2013-08-27 11:30:00,78.4,68.7,29.83,South,177,1.0,9.0,72,0.00,FEW,,0.63,218.0,WeatherDisplay:10.37,2013-08-27 09:30:00,
2013-08-27 11:35:00,78.1,68.3,29.83,South,182,9.0,15.0,72,0.00,SCT,,0.63,200.0,WeatherDisplay:10.37,2013-08-27 09:35:00,
2013-08-27 11:40:00,77.6,68.3,29.83,South,180,5.0,13.0,73,0.00,SCT,,0.63,258.0,WeatherDisplay:10.37,2013-08-27 09:40:00,
2013-08-27 11:45:00,77.5,68.6,29.83,South,187,7.0,12.0,74,0.00,SCT,,0.63,413.0,WeatherDisplay:10.37,2013-08-27 09:45:00,
2013-08-27 11:50:00,77.6,68.7,29.83,SSW,194,7.0,13.0,74,0.00,SCT,,0.63,413.0,WeatherDisplay:10.37,2013-08-27 09:50:00,
2013-08-27 11:55:00,78.0,69.0,29.83,South,190,3.0,12.0,74,0.00,SCT,,0.63,304.0,WeatherDisplay:10.37,2013-08-27 09:55:00,
2013-08-27 12:00:00,77.7,68.3,29.83,South,182,6.0,15.0,73,0.00,SCT,,0.63,243.0,WeatherDisplay:10.37,2013-08-27 10:00:00,
2013-08-27 12:05:00,77.9,68.9,29.83,South,176,3.0,8.0,74,0.00,SCT,,0.63,213.0,WeatherDisplay:10.37,2013-08-27 10:05:00,
2013-08-27 12:10:00,77.8,69.2,29.83,SSW,192,0.0,8.0,75,0.00,SCT,,0.63,214.0,WeatherDisplay:10.37,2013-08-27 10:10:00,
2013-08-27 12:15:00,77.8,68.8,29.82,SSW,192,2.0,7.0,74,0.00,SCT,,0.63,232.0,WeatherDisplay:10.37,2013-08-27 10:15:00,
2013-08-27 12:20:00,77.5,68.9,29.82,South,190,5.0,15.0,75,0.00,SCT,,0.63,290.0,WeatherDisplay:10.37,2013-08-27 10:20:00,
2013-08-27 12:25:00,77.7,68.8,29.82,South,191,8.0,13.0,74,0.00,SCT,,0.63,318.0,WeatherDisplay:10.37,2013-08-27 10:25:00,
2013-08-27 12:30:00,77.5,68.6,29.82,South,187,7.0,15.0,74,0.00,SCT,,0.63,281.0,WeatherDisplay:10.37,2013-08-27 10:30:00,
2013-08-27 12:35:00,77.4,68.5,29.83,South,184,10.0,15.0,74,0.00,SCT,,0.63,276.0,WeatherDisplay:10.37,2013-08-27 10:35:00,
2013-08-27 12:40:00,77.6,69.1,29.83,South,179,1.0,12.0,75,0.00,SCT,,0.63,264.0,WeatherDisplay:10.37,2013-08-27 10:40:00,
2013-08-27 12:45:00,77.7,68.7,29.83,South,184,6.0,12.0,74,0.00,SCT,,0.63,290.0,WeatherDisplay:10.37,2013-08-27 10:45:00,
2013-08-27 12:50:00,77.4,68.5,29.83,SSW,193,8.0,15.0,74,0.00,SCT,,0.63,345.0,WeatherDisplay:10.37,2013-08-27 10:50:00,
2013-08-27 12:55:00,77.6,69.0,29.82,South,187,7.0,13.0,75,0.00,SCT,,0.63,404.0,WeatherDisplay:10.37,2013-08-27 10:55:00,
2013-08-27 13:05:00,78.2,69.2,29.83,South,189,9.0,14.0,74,0.00,SCT,,0.63,603.0,WeatherDisplay:10.37,2013-08-27 11:05:00,
2013-08-27 13:10:00,78.4,69.0,29.83,South,177,12.0,17.0,73,0.00,SCT,,0.63,454.0,WeatherDisplay:10.37,2013-08-27 11:10:00,
2013-08-27 13:15:00,78.2,69.3,29.82,South,170,10.0,17.0,74,0.00,SCT,,0.63,438.0,WeatherDisplay:10.37,2013-08-27 11:15:00,
2013-08-27 13:20:00,78.0,69.8,29.83,SSE,161,9.0,17.0,76,0.00,SCT,,0.63,413.0,WeatherDisplay:10.37,2013-08-27 11:20:00,
2013-08-27 13:25:00,77.9,69.3,29.82,South,173,9.0,20.0,75,0.00,SCT,,0.63,533.0,WeatherDisplay:10.37,2013-08-27 11:25:00,
2013-08-27 13:30:00,78.5,69.5,29.81,South,170,12.0,18.0,74,0.00,SCT,,0.63,701.0,WeatherDisplay:10.37,2013-08-27 11:30:00,
2013-08-27 13:35:00,78.4,69.4,29.81,SSE,167,10.0,20.0,74,0.00,SCT,,0.63,475.0,WeatherDisplay:10.37,2013-08-27 11:35:00,
2013-08-27 13:40:00,79.1,69.7,29.81,SSE,164,7.0,20.0,73,0.00,SCT,,0.63,1174.0,WeatherDisplay:10.37,2013-08-27 11:40:00,
2013-08-27 13:45:00,79.1,69.7,29.82,SSE,167,7.0,20.0,73,0.00,SCT,,0.63,315.0,WeatherDisplay:10.37,2013-08-27 11:45:00,
2013-08-27 13:50:00,78.8,69.8,29.82,South,169,9.0,17.0,74,0.00,SCT,,0.63,200.0,WeatherDisplay:10.37,2013-08-27 11:50:00,
2013-08-27 13:55:00,77.8,69.2,29.83,South,181,7.0,17.0,75,0.00,SCT,,0.63,95.0,WeatherDisplay:10.37,2013-08-27 11:55:00,
2013-08-27 14:00:00,77.3,69.9,29.83,South,183,10.0,17.0,78,0.00,SCT,,0.63,93.0,WeatherDisplay:10.37,2013-08-27 12:00:00,
2013-08-27 14:05:00,77.1,70.1,29.83,South,190,2.0,14.0,79,0.00,SCT,,0.63,51.0,WeatherDisplay:10.37,2013-08-27 12:05:00,
2013-08-27 14:10:00,75.6,67.1,29.84,WSW,254,13.0,17.0,75,0.00,SCT,,0.63,7.0,WeatherDisplay:10.37,2013-08-27 12:10:00,
2013-08-27 14:15:00,72.4,64.4,29.83,NNW,338,6.0,14.0,76,0.00,SCT,,0.63,0.0,WeatherDisplay:10.37,2013-08-27 12:15:00,
2013-08-27 14:20:00,70.1,64.0,29.85,SSW,198,6.0,25.0,81,0.01,RA,,0.64,0.0,WeatherDisplay:10.37,2013-08-27 12:20:00,
2013-08-27 14:25:00,69.2,64.2,29.84,SSW,207,3.0,22.0,84,0.02,RA,,0.65,5.0,WeatherDisplay:10.37,2013-08-27 12:25:00,
2013-08-27 14:30:00,68.1,63.7,29.84,West,268,14.0,21.0,86,0.02,RA,,0.67,0.0,WeatherDisplay:10.37,2013-08-27 12:30:00,
2013-08-27 14:35:00,67.6,63.6,29.86,WNW,288,3.0,15.0,87,0.02,RA,,0.69,7.0,WeatherDisplay:10.37,2013-08-27 12:35:00,
2013-08-27 14:40:00,67.0,63.3,29.87,NW,308,12.0,20.0,88,0.02,RA,,0.72,12.0,WeatherDisplay:10.37,2013-08-27 12:40:00,
2013-08-27 14:45:00,66.3,62.9,29.88,NNW,336,5.0,18.0,89,0.03,RA,,0.75,33.0,WeatherDisplay:10.37,2013-08-27 12:45:00,
2013-08-27 14:50:00,66.0,63.0,29.86,North,358,12.0,15.0,90,0.03,RA,,0.78,70.0,WeatherDisplay:10.37,2013-08-27 12:50:00,
2013-08-27 14:55:00,66.3,63.6,29.86,North,357,9.0,14.0,91,0.03,RA,,0.81,135.0,WeatherDisplay:10.37,2013-08-27 12:55:00,
2013-08-27 15:00:00,66.8,64.4,29.85,North,5,5.0,10.0,92,0.02,RA,,0.83,327.0,WeatherDisplay:10.37,2013-08-27 13:00:00,
2013-08-27 15:05:00,67.0,64.6,29.84,North,11,2.0,9.0,92,0.02,RA,,0.86,209.0,WeatherDisplay:10.37,2013-08-27 13:05:00,
2013-08-27 15:10:00,67.1,64.7,29.84,North,10,6.0,10.0,92,0.03,RA,,0.89,257.0,WeatherDisplay:10.37,2013-08-27 13:10:00,
2013-08-27 15:15:00,67.6,65.5,29.84,NNE,16,6.0,12.0,93,0.02,RA,,0.91,925.0,WeatherDisplay:10.37,2013-08-27 13:15:00,
2013-08-27 15:20:00,67.8,65.7,29.84,NNE,20,1.0,9.0,93,0.02,RA,,0.94,374.0,WeatherDisplay:10.37,2013-08-27 13:20:00,
2013-08-27 15:25:00,68.3,66.2,29.84,NNE,24,5.0,8.0,93,0.03, +RA,,0.97,496.0,WeatherDisplay:10.37,2013-08-27 13:25:00,
2013-08-27 15:30:00,68.8,66.7,29.84,NNE,21,3.0,7.0,93,0.02, +RA,,0.98,622.0,WeatherDisplay:10.37,2013-08-27 13:30:00,
2013-08-27 15:35:00,69.3,67.2,29.84,NNE,19,2.0,7.0,93,0.02,RA,,1.00,856.0,WeatherDisplay:10.37,2013-08-27 13:35:00,
2013-08-27 15:40:00,69.4,67.3,29.84,NE,37,3.0,9.0,93,0.02,RA,,1.02,392.0,WeatherDisplay:10.37,2013-08-27 13:40:00,
2013-08-27 15:45:00,69.4,67.3,29.84,NE,46,7.0,10.0,93,0.02,RA,,1.03,673.0,WeatherDisplay:10.37,2013-08-27 13:45:00,
2013-08-27 15:50:00,69.9,67.8,29.83,NE,50,5.0,9.0,93,0.02,RA,,1.05,679.0,WeatherDisplay:10.37,2013-08-27 13:50:00,
2013-08-27 15:55:00,69.9,67.5,29.83,NE,38,9.0,13.0,92,0.02,RA,,1.06,649.0,WeatherDisplay:10.37,2013-08-27 13:55:00,
2013-08-27 16:00:00,70.4,68.0,29.83,NE,47,7.0,13.0,92,0.02,RA,,1.08,629.0,WeatherDisplay:10.37,2013-08-27 14:00:00,
2013-08-27 16:05:00,70.7,68.0,29.82,NE,56,5.0,13.0,91,0.02,RA,,1.09,615.0,WeatherDisplay:10.37,2013-08-27 14:05:00,
2013-08-27 16:10:00,71.4,68.3,29.82,ENE,64,5.0,9.0,90,0.01,RA,,1.10,603.0,WeatherDisplay:10.37,2013-08-27 14:10:00,
2013-08-27 16:15:00,71.4,68.0,29.81,ENE,57,7.0,12.0,89,0.02,RA,,1.13,578.0,WeatherDisplay:10.37,2013-08-27 14:15:00,
2013-08-27 16:20:00,71.9,68.2,29.81,NE,52,7.0,12.0,88,0.02,RA,,1.14,568.0,WeatherDisplay:10.37,2013-08-27 14:20:00,
2013-08-27 16:25:00,72.3,68.2,29.80,ENE,64,6.0,12.0,87,0.01,RA,,1.15,555.0,WeatherDisplay:10.37,2013-08-27 14:25:00,
2013-08-27 16:30:00,72.6,68.5,29.80,ENE,63,6.0,9.0,87,0.02,RA,,1.16,538.0,WeatherDisplay:10.37,2013-08-27 14:30:00,
2013-08-27 16:35:00,72.9,68.8,29.80,NE,56,8.0,12.0,87,0.02,RA,,1.18,526.0,WeatherDisplay:10.37,2013-08-27 14:35:00,
2013-08-27 16:40:00,72.5,68.0,29.81,ENE,60,8.0,12.0,86,0.02,RA,,1.21,517.0,WeatherDisplay:10.37,2013-08-27 14:40:00,
2013-08-27 16:45:00,72.9,68.4,29.81,ENE,57,3.0,12.0,86,0.02,RA,,1.22,492.0,WeatherDisplay:10.37,2013-08-27 14:45:00,
2013-08-27 16:50:00,72.9,68.5,29.81,ENE,66,5.0,9.0,86,0.02,RA,,1.24,487.0,WeatherDisplay:10.37,2013-08-27 14:50:00,
2013-08-27 16:55:00,72.8,67.3,29.81,East,90,6.0,9.0,83,0.02,RA,,1.27,473.0,WeatherDisplay:10.37,2013-08-27 14:55:00,
2013-08-27 17:00:00,73.3,67.5,29.81,East,86,1.0,7.0,82,0.02,RA,,1.29,478.0,WeatherDisplay:10.37,2013-08-27 15:00:00,
2013-08-27 17:05:00,73.9,67.3,29.81,ENE,77,2.0,7.0,80,0.02,RA,,1.32,144.0,WeatherDisplay:10.37,2013-08-27 15:05:00,
2013-08-27 17:10:00,74.1,67.2,29.81,ENE,69,1.0,6.0,79,0.02,RA,,1.33,443.0,WeatherDisplay:10.37,2013-08-27 15:10:00,
2013-08-27 17:15:00,74.6,67.0,29.81,ENE,69,2.0,4.0,77,0.02,RA,,1.35,452.0,WeatherDisplay:10.37,2013-08-27 15:15:00,
2013-08-27 17:20:00,75.0,67.3,29.81,ENE,69,0.0,4.0,77,0.02,RA,,1.37,434.0,WeatherDisplay:10.37,2013-08-27 15:20:00,
2013-08-27 17:25:00,75.5,67.4,29.81,ENE,71,0.0,1.0,76,0.02,RA,,1.39,422.0,WeatherDisplay:10.37,2013-08-27 15:25:00,
2013-08-27 17:30:00,75.9,67.8,29.81,ENE,71,0.0,1.0,76,0.01,RA,,1.39,285.0,WeatherDisplay:10.37,2013-08-27 15:30:00,
2013-08-27 17:35:00,76.3,67.8,29.81,ENE,71,0.0,0.0,75,0.02,RA,,1.41,434.0,WeatherDisplay:10.37,2013-08-27 15:35:00,
2013-08-27 17:40:00,76.8,67.9,29.81,ENE,71,0.0,0.0,74,0.01,RA,,1.42,427.0,WeatherDisplay:10.37,2013-08-27 15:40:00,
2013-08-27 17:45:00,76.9,67.6,29.82,ENE,71,0.0,0.0,73,0.00,RA,,1.42,401.0,WeatherDisplay:10.37,2013-08-27 15:45:00,
2013-08-27 17:50:00,76.9,67.6,29.82,ENE,71,0.0,0.0,73,0.00,SCT,,1.42,399.0,WeatherDisplay:10.37,2013-08-27 15:50:00,
2013-08-27 17:55:00,77.0,67.7,29.82,ENE,71,1.0,4.0,73,0.00,SCT,,1.42,350.0,WeatherDisplay:10.37,2013-08-27 15:55:00,
2013-08-27 18:00:00,77.5,68.5,29.82,ENE,71,0.0,0.0,74,0.00,SCT,,1.42,327.0,WeatherDisplay:10.37,2013-08-27 16:00:00,
2013-08-27 18:05:00,78.2,68.8,29.82,ENE,71,0.0,0.0,73,0.00,SCT,,1.42,306.0,WeatherDisplay:10.37,2013-08-27 16:05:00,
2013-08-27 18:10:00,78.9,68.7,29.82,ENE,71,0.0,3.0,71,0.00,SCT,,1.42,294.0,WeatherDisplay:10.37,2013-08-27 16:10:00,
2013-08-27 18:15:00,79.1,68.9,29.82,SE,134,2.0,5.0,71,0.00,SCT,,1.42,253.0,WeatherDisplay:10.37,2013-08-27 16:15:00,
2013-08-27 18:20:00,78.8,68.2,29.82,SSW,210,1.0,4.0,70,0.00,SCT,,1.42,230.0,WeatherDisplay:10.37,2013-08-27 16:20:00,
2013-08-27 18:25:00,78.7,68.1,29.82,SW,217,0.0,4.0,70,0.00,SCT,,1.42,188.0,WeatherDisplay:10.37,2013-08-27 16:25:00,
2013-08-27 18:30:00,78.7,68.5,29.82,SW,228,1.0,5.0,71,0.00,SCT,,1.42,199.0,WeatherDisplay:10.37,2013-08-27 16:30:00,
2013-08-27 18:35:00,78.6,68.4,29.81,West,268,0.0,6.0,71,0.00,FEW,,1.42,179.0,WeatherDisplay:10.37,2013-08-27 16:35:00,
2013-08-27 18:40:00,77.8,68.5,29.81,WSW,237,0.0,6.0,73,0.00,FEW,,1.42,165.0,WeatherDisplay:10.37,2013-08-27 16:40:00,
2013-08-27 18:45:00,77.8,68.4,29.81,South,172,3.0,5.0,73,0.00,FEW,,1.42,146.0,WeatherDisplay:10.37,2013-08-27 16:45:00,
2013-08-27 18:50:00,78.0,69.0,29.81,South,178,0.0,3.0,74,0.00,FEW,,1.42,141.0,WeatherDisplay:10.37,2013-08-27 16:50:00,
2013-08-27 18:55:00,77.9,68.9,29.81,South,179,1.0,3.0,74,0.00,FEW,,1.42,128.0,WeatherDisplay:10.37,2013-08-27 16:55:00,
2013-08-27 19:00:00,78.0,69.0,29.81,South,179,0.0,2.0,74,0.00,FEW,,1.42,107.0,WeatherDisplay:10.37,2013-08-27 17:00:00,
2013-08-27 19:05:00,78.0,68.6,29.81,South,182,1.0,5.0,73,0.00,FEW,,1.42,91.0,WeatherDisplay:10.37,2013-08-27 17:05:00,
2013-08-27 19:10:00,78.0,69.0,29.81,South,183,0.0,1.0,74,0.00,FEW,,1.42,76.0,WeatherDisplay:10.37,2013-08-27 17:10:00,
2013-08-27 19:15:00,77.8,68.5,29.81,South,184,0.0,1.0,73,0.00,FEW,,1.42,53.0,WeatherDisplay:10.37,2013-08-27 17:15:00,
2013-08-27 19:20:00,77.1,68.2,29.81,South,184,0.0,4.0,74,0.00,FEW,,1.42,47.0,WeatherDisplay:10.37,2013-08-27 17:20:00,
2013-08-27 19:25:00,76.9,68.4,29.81,SSW,201,5.0,6.0,75,0.00,FEW,,1.42,33.0,WeatherDisplay:10.37,2013-08-27 17:25:00,
2013-08-27 19:30:00,76.9,68.3,29.81,SSW,207,1.0,5.0,75,0.00,FEW,,1.42,26.0,WeatherDisplay:10.37,2013-08-27 17:30:00,
2013-08-27 19:35:00,76.6,68.4,29.81,SSW,209,1.0,2.0,76,0.00,OVC,,1.42,16.0,WeatherDisplay:10.37,2013-08-27 17:35:00,
2013-08-27 19:40:00,75.9,68.2,29.81,SSW,209,3.0,6.0,77,0.00,OVC,,1.42,12.0,WeatherDisplay:10.37,2013-08-27 17:40:00,
2013-08-27 19:45:00,75.6,68.3,29.82,SSW,209,2.0,4.0,78,0.00,OVC,,1.42,7.0,WeatherDisplay:10.37,2013-08-27 17:45:00,
2013-08-27 19:50:00,75.3,68.0,29.81,SSW,209,1.0,5.0,78,0.00,OVC,,1.42,5.0,WeatherDisplay:10.37,2013-08-27 17:50:00,
2013-08-27 19:55:00,75.0,68.1,29.81,SSW,212,3.0,7.0,79,0.00,OVC,,1.42,0.0,WeatherDisplay:10.37,2013-08-27 17:55:00,
2013-08-27 20:00:00,75.0,68.0,29.81,SW,216,3.0,7.0,79,0.00,,,1.42,0.0,WeatherDisplay:10.37,2013-08-27 18:00:00,
2013-08-27 20:05:00,75.0,68.4,29.82,SW,219,3.0,7.0,80,0.00,,,1.42,0.0,WeatherDisplay:10.37,2013-08-27 18:05:00,
2013-08-27 20:10:00,74.9,68.3,29.82,SW,221,1.0,5.0,80,0.00,,,1.42,0.0,WeatherDisplay:10.37,2013-08-27 18:10:00,
2013-08-27 20:15:00,74.6,68.0,29.82,SW,220,3.0,7.0,80,0.00,,,1.42,0.0,WeatherDisplay:10.37,2013-08-27 18:15:00,
2013-08-27 20:20:00,74.1,68.3,29.82,SW,217,0.0,5.0,82,0.00,,,1.42,0.0,WeatherDisplay:10.37,2013-08-27 18:20:00,
2013-08-27 20:25:00,73.9,68.4,29.82,SW,215,2.0,6.0,83,0.00,,,1.42,0.0,WeatherDisplay:10.37,2013-08-27 18:25:00,
2013-08-27 20:30:00,73.7,68.2,29.82,SSW,210,3.0,7.0,83,0.00,,,1.42,0.0,WeatherDisplay:10.37,2013-08-27 18:30:00,
2013-08-27 20:35:00,73.6,68.5,29.82,SSW,202,2.0,7.0,84,0.00,,,1.42,0.0,WeatherDisplay:10.37,2013-08-27 18:35:00,
2013-08-27 20:40:00,73.4,68.3,29.83,SSW,199,0.0,6.0,84,0.00,,,1.42,0.0,WeatherDisplay:10.37,2013-08-27 18:40:00,
2013-08-27 20:45:00,73.3,68.5,29.83,SSW,198,1.0,7.0,85,0.00,,,1.42,0.0,WeatherDisplay:10.37,2013-08-27 18:45:00,
2013-08-27 20:50:00,73.0,68.3,29.83,SSW,198,0.0,4.0,85,0.00,,,1.42,0.0,WeatherDisplay:10.37,2013-08-27 18:50:00,
2013-08-27 20:55:00,72.8,68.4,29.83,SSW,199,2.0,5.0,86,0.00,,,1.42,0.0,WeatherDisplay:10.37,2013-08-27 18:55:00,
2013-08-27 21:00:00,72.6,68.2,29.83,SSW,199,0.0,1.0,86,0.00,,,1.42,0.0,WeatherDisplay:10.37,2013-08-27 19:00:00,
2013-08-27 21:05:00,72.4,68.3,29.83,SSW,199,0.0,1.0,87,0.00,FEW,,1.42,0.0,WeatherDisplay:10.37,2013-08-27 19:05:00,
2013-08-27 21:10:00,72.2,68.1,29.83,South,189,1.0,5.0,87,0.00,FEW,,1.42,0.0,WeatherDisplay:10.37,2013-08-27 19:10:00,
2013-08-27 21:15:00,71.8,67.7,29.83,SSE,158,1.0,4.0,87,0.00,FEW,,1.42,0.0,WeatherDisplay:10.37,2013-08-27 19:15:00,
2013-08-27 21:20:00,71.5,67.8,29.83,SSE,158,0.0,5.0,88,0.00,FEW,,1.42,0.0,WeatherDisplay:10.37,2013-08-27 19:20:00,
2013-08-27 21:25:00,71.2,67.5,29.83,SSE,160,1.0,5.0,88,0.00,FEW,,1.42,0.0,WeatherDisplay:10.37,2013-08-27 19:25:00,
2013-08-27 21:30:00,71.1,67.4,29.83,SSE,161,0.0,5.0,88,0.00,FEW,,1.42,0.0,WeatherDisplay:10.37,2013-08-27 19:30:00,
2013-08-27 21:35:00,70.9,67.2,29.83,SSE,162,2.0,5.0,88,0.00,FEW,,1.42,0.0,WeatherDisplay:10.37,2013-08-27 19:35:00,
2013-08-27 21:40:00,70.8,67.1,29.83,SSE,162,1.0,5.0,88,0.00,FEW,,1.42,0.0,WeatherDisplay:10.37,2013-08-27 19:40:00,
2013-08-27 21:45:00,70.6,66.9,29.83,SSE,166,1.0,6.0,88,0.00,FEW,,1.42,0.0,WeatherDisplay:10.37,2013-08-27 19:45:00,
2013-08-27 21:50:00,70.5,66.8,29.83,SSE,168,2.0,6.0,88,0.00,FEW,,1.42,0.0,WeatherDisplay:10.37,2013-08-27 19:50:00,
2013-08-27 21:55:00,70.4,66.3,29.83,SSE,168,2.0,6.0,87,0.00,FEW,,1.42,0.0,WeatherDisplay:10.37,2013-08-27 19:55:00,
2013-08-27 22:00:00,70.4,66.3,29.83,South,169,2.0,7.0,87,0.00,FEW,,1.42,0.0,WeatherDisplay:10.37,2013-08-27 20:00:00,
2013-08-27 22:05:00,70.3,66.2,29.83,South,173,2.0,6.0,87,0.00,SCT,,1.42,0.0,WeatherDisplay:10.37,2013-08-27 20:05:00,
2013-08-27 22:10:00,70.3,66.2,29.83,South,174,1.0,6.0,87,0.00,SCT,,1.42,0.0,WeatherDisplay:10.37,2013-08-27 20:10:00,
2013-08-27 22:15:00,70.2,66.1,29.83,South,172,0.0,3.0,87,0.00,SCT,,1.42,0.0,WeatherDisplay:10.37,2013-08-27 20:15:00,
2013-08-27 22:20:00,70.1,66.4,29.83,South,169,0.0,4.0,88,0.00,SCT,,1.42,0.0,WeatherDisplay:10.37,2013-08-27 20:20:00,
2013-08-27 22:25:00,69.9,66.2,29.83,SSE,164,2.0,5.0,88,0.00,SCT,,1.42,0.0,WeatherDisplay:10.37,2013-08-27 20:25:00,
2013-08-27 22:30:00,69.9,66.2,29.83,SSE,161,1.0,5.0,88,0.00,SCT,,1.42,0.0,WeatherDisplay:10.37,2013-08-27 20:30:00,
2013-08-27 22:35:00,69.8,66.1,29.83,SSE,158,2.0,5.0,88,0.00,SCT,,1.42,0.0,WeatherDisplay:10.37,2013-08-27 20:35:00,
2013-08-27 22:40:00,69.8,66.1,29.83,SSE,157,2.0,4.0,88,0.00,SCT,,1.42,0.0,WeatherDisplay:10.37,2013-08-27 20:40:00,
2013-08-27 22:45:00,69.8,66.1,29.83,SSE,157,0.0,4.0,88,0.00,SCT,,1.42,0.0,WeatherDisplay:10.37,2013-08-27 20:45:00,
2013-08-27 22:50:00,69.7,66.0,29.84,SSE,157,0.0,5.0,88,0.00,SCT,,1.42,0.0,WeatherDisplay:10.37,2013-08-27 20:50:00,
2013-08-27 22:55:00,69.7,66.0,29.83,SSE,157,1.0,5.0,88,0.00,SCT,,1.42,0.0,WeatherDisplay:10.37,2013-08-27 20:55:00,
2013-08-27 23:00:00,69.7,66.0,29.83,SSE,157,0.0,3.0,88,0.00,SCT,,1.42,0.0,WeatherDisplay:10.37,2013-08-27 21:00:00,
2013-08-27 23:05:00,69.7,66.0,29.84,SSE,157,0.0,0.0,88,0.00,SCT,,1.42,0.0,WeatherDisplay:10.37,2013-08-27 21:05:00,
2013-08-27 23:10:00,69.8,66.1,29.84,SSE,157,0.0,1.0,88,0.00,SCT,,1.42,0.0,WeatherDisplay:10.37,2013-08-27 21:10:00,
2013-08-27 23:25:00,70.0,65.9,29.84,SSE,157,0.0,4.0,87,0.00,SCT,,1.42,0.0,WeatherDisplay:10.37,2013-08-27 21:25:00,
2013-08-27 23:30:00,70.1,66.0,29.84,SSE,157,0.0,1.0,87,0.00,SCT,,1.42,0.0,WeatherDisplay:10.37,2013-08-27 21:30:00,
2013-08-27 23:35:00,70.1,66.0,29.84,SSE,157,0.0,1.0,87,0.00,SCT,,1.42,0.0,WeatherDisplay:10.37,2013-08-27 21:35:00,
2013-08-27 23:50:00,69.8,65.8,29.84,SSE,157,0.0,1.0,87,0.00,SCT,,1.42,0.0,WeatherDisplay:10.37,2013-08-27 21:50:00,
2013-08-27 23:55:00,69.7,65.7,29.84,SSE,157,0.0,1.0,87,0.00,SCT,,1.42,0.0,WeatherDisplay:10.37,2013-08-27 21:55:00,